Time;durP1;ratioP1;P1;durP2;ratioP2;P2;SDS_P1;SDS_P2;PMS_P1;PMS_P2;Temp;Humidity;BMP_temperature;BMP_pressure;BME280_temperature;BME280_humidity;BME280_pressure;Samples;Min_cycle;Max_cycle;Signal;HPM_P1;HPM_P2
2022/03/04 05:01:26;;;;;;;21.20;9.98;;;1.40;99.90;;;;;;5442158;23;20680;-67
2022/03/04 05:03:53;;;;;;;15.15;9.23;;;1.30;99.90;;;;;;4947754;29;20206;-67
2022/03/04 05:06:19;;;;;;;26.25;12.00;;;1.30;99.90;;;;;;4937408;29;20587;-67
2022/03/04 05:08:46;;;;;;;24.02;9.93;;;1.30;99.90;;;;;;4950405;29;20225;-66
2022/03/04 05:11:13;;;;;;;26.63;10.70;;;1.20;99.90;;;;;;4948519;28;20225;-67
2022/03/04 05:13:39;;;;;;;25.65;10.50;;;1.20;99.90;;;;;;4935207;29;20221;-67
2022/03/04 05:16:06;;;;;;;24.63;10.00;;;1.20;99.90;;;;;;4935353;29;20206;-67
2022/03/04 05:18:34;;;;;;;29.52;10.90;;;1.20;99.90;;;;;;4942937;29;20219;-68
2022/03/04 05:21:03;;;;;;;19.77;8.88;;;1.10;99.90;;;;;;4936205;28;20229;-67
2022/03/04 05:26:13;;;;;;;15.70;9.02;;;1.10;99.90;;;;;;4928581;29;20938;-68
2022/03/04 05:28:40;;;;;;;19.60;8.50;;;1.00;99.90;;;;;;4917702;29;20237;-67
2022/03/04 05:31:07;;;;;;;17.95;8.48;;;0.90;99.90;;;;;;4915765;29;20238;-68
2022/03/04 05:33:35;;;;;;;21.67;10.25;;;0.90;99.90;;;;;;4930853;29;20233;-68
2022/03/04 05:36:01;;;;;;;24.77;8.68;;;0.90;99.90;;;;;;4931926;29;20221;-68
2022/03/04 05:38:28;;;;;;;12.48;6.45;;;0.90;99.90;;;;;;4933022;29;20261;-67
2022/03/04 05:40:55;;;;;;;17.55;9.55;;;0.90;99.90;;;;;;4922300;29;20260;-68
2022/03/04 05:43:21;;;;;;;32.65;9.80;;;0.90;99.90;;;;;;4933728;29;20232;-68
2022/03/04 05:45:49;;;;;;;23.95;9.38;;;0.80;99.90;;;;;;4933343;29;20261;-67
2022/03/04 05:48:16;;;;;;;23.75;9.80;;;0.80;99.90;;;;;;4934997;29;20224;-68
2022/03/04 05:50:44;;;;;;;25.58;10.32;;;0.80;99.90;;;;;;4933147;29;20273;-67
2022/03/04 05:53:11;;;;;;;20.75;11.75;;;0.80;99.90;;;;;;4934226;29;20213;-68
2022/03/04 05:55:38;;;;;;;14.38;9.00;;;0.90;99.90;;;;;;4934267;29;20221;-69
2022/03/04 05:58:05;;;;;;;30.63;10.45;;;0.90;99.90;;;;;;4934355;29;20221;-67
2022/03/04 06:00:32;;;;;;;20.00;10.10;;;0.90;99.90;;;;;;4932489;29;20261;-67
2022/03/04 06:02:59;;;;;;;26.95;10.13;;;0.90;99.90;;;;;;4934453;29;20711;-67
2022/03/04 06:05:26;;;;;;;27.08;10.32;;;0.90;99.90;;;;;;4934246;29;20213;-67
2022/03/04 06:07:54;;;;;;;9.20;5.93;;;0.80;99.90;;;;;;4932016;29;20214;-68
2022/03/04 06:10:20;;;;;;;20.77;7.43;;;0.80;99.90;;;;;;4933092;29;20202;-66
2022/03/04 06:12:47;;;;;;;23.40;8.60;;;0.70;99.90;;;;;;4937608;29;20201;-66
2022/03/04 06:15:14;;;;;;;17.90;8.48;;;0.70;99.90;;;;;;4950390;28;20334;-66
2022/03/04 06:17:46;;;;;;;21.63;8.40;;;0.70;99.90;;;;;;4944753;29;20202;-66
2022/03/04 06:20:13;;;;;;;14.50;8.65;;;0.70;99.90;;;;;;4931814;29;20210;-69
2022/03/04 06:22:39;;;;;;;15.30;7.50;;;0.70;99.90;;;;;;4932660;29;20689;-69
2022/03/04 06:25:09;;;;;;;23.02;7.75;;;0.70;99.90;;;;;;4933888;29;20210;-68
2022/03/04 06:27:36;;;;;;;15.40;7.68;;;0.70;99.90;;;;;;4915147;29;20214;-68
2022/03/04 06:30:03;;;;;;;16.45;8.07;;;0.70;99.90;;;;;;4929822;29;20697;-69
2022/03/04 06:32:30;;;;;;;17.60;7.95;;;0.70;99.90;;;;;;4933629;29;20285;-67
2022/03/04 06:34:57;;;;;;;13.98;6.85;;;0.70;99.90;;;;;;4920278;29;20230;-66
2022/03/04 06:37:24;;;;;;;14.90;8.35;;;0.70;99.90;;;;;;4932678;29;20210;-67
2022/03/04 06:39:51;;;;;;;10.40;7.07;;;0.70;99.90;;;;;;4933691;29;20225;-67
2022/03/04 06:42:19;;;;;;;13.40;6.93;;;0.70;99.90;;;;;;4930773;29;20307;-67
2022/03/04 06:44:45;;;;;;;14.38;7.22;;;0.60;99.90;;;;;;4933994;29;20210;-68
2022/03/04 06:47:12;;;;;;;11.90;7.60;;;0.60;99.90;;;;;;4924101;29;20221;-68
2022/03/04 06:49:39;;;;;;;14.20;7.30;;;0.70;99.90;;;;;;4933575;29;20261;-68
2022/03/04 06:52:06;;;;;;;12.27;7.03;;;0.60;99.90;;;;;;4932963;29;20226;-67
2022/03/04 06:54:36;;;;;;;12.95;7.75;;;0.60;99.90;;;;;;4934250;29;20297;-68
2022/03/04 06:57:03;;;;;;;9.00;6.00;;;0.60;99.90;;;;;;4919060;29;20360;-68
2022/03/04 06:59:31;;;;;;;15.48;8.13;;;0.60;99.90;;;;;;4919548;29;20283;-67
2022/03/04 07:01:57;;;;;;;24.08;7.80;;;0.60;99.90;;;;;;4931054;29;20300;-67
2022/03/04 07:04:24;;;;;;;15.07;8.63;;;0.70;99.90;;;;;;4932342;29;20198;-67
2022/03/04 07:06:51;;;;;;;12.65;7.10;;;0.70;99.90;;;;;;4941093;29;20284;-67
2022/03/04 07:09:18;;;;;;;11.07;6.38;;;0.70;99.90;;;;;;4937350;28;20210;-68
2022/03/04 07:11:44;;;;;;;15.88;7.70;;;0.70;99.90;;;;;;4933176;29;20230;-68
2022/03/04 07:14:11;;;;;;;10.73;5.55;;;0.70;99.90;;;;;;4935762;28;20226;-66
2022/03/04 07:16:39;;;;;;;7.88;5.07;;;0.70;99.90;;;;;;4925247;29;20210;-69
2022/03/04 07:19:05;;;;;;;14.50;7.40;;;0.70;99.90;;;;;;4927416;29;20206;-67
2022/03/04 07:21:33;;;;;;;19.70;8.35;;;0.70;99.90;;;;;;4932656;29;20226;-67
2022/03/04 07:23:59;;;;;;;14.85;9.60;;;0.70;99.90;;;;;;4934584;29;20826;-67
2022/03/04 07:26:26;;;;;;;18.05;9.18;;;0.70;99.90;;;;;;4932681;29;20198;-67
2022/03/04 07:28:53;;;;;;;14.95;8.20;;;0.70;99.90;;;;;;4931057;29;20206;-67
2022/03/04 07:31:20;;;;;;;13.77;7.32;;;0.80;99.90;;;;;;4924501;29;20658;-67
2022/03/04 07:33:48;;;;;;;10.20;7.50;;;0.80;99.90;;;;;;4932955;29;20272;-67
2022/03/04 07:36:15;;;;;;;11.48;5.75;;;0.80;99.90;;;;;;4940651;29;20205;-67
2022/03/04 07:38:43;;;;;;;15.00;7.45;;;0.70;99.90;;;;;;4934049;29;20738;-67
2022/03/04 07:41:10;;;;;;;7.75;5.65;;;0.70;99.90;;;;;;4932057;29;20222;-68
2022/03/04 07:43:37;;;;;;;14.20;7.25;;;0.80;99.90;;;;;;4928947;29;20280;-68
2022/03/04 07:46:04;;;;;;;8.95;6.93;;;0.80;99.90;;;;;;4925582;29;20316;-68
2022/03/04 07:48:31;;;;;;;12.48;7.32;;;0.80;99.90;;;;;;4936867;29;20213;-68
2022/03/04 07:50:59;;;;;;;8.18;6.28;;;0.80;99.90;;;;;;4927288;29;20230;-68
2022/03/04 07:53:25;;;;;;;11.20;6.90;;;0.80;99.90;;;;;;4936721;29;20646;-69
2022/03/04 07:55:52;;;;;;;11.65;6.65;;;0.80;99.90;;;;;;4931745;29;20221;-67
2022/03/04 07:58:19;;;;;;;18.27;7.53;;;0.80;99.90;;;;;;4926995;29;20739;-67
2022/03/04 08:00:45;;;;;;;9.35;7.00;;;0.90;99.90;;;;;;4935997;28;20304;-68
2022/03/04 08:03:12;;;;;;;13.05;6.65;;;0.90;99.90;;;;;;4934185;28;20205;-68
2022/03/04 08:05:39;;;;;;;10.73;7.43;;;0.90;99.90;;;;;;4937172;29;20201;-67
2022/03/04 08:08:07;;;;;;;17.75;8.32;;;0.90;99.90;;;;;;4924756;29;20743;-67
2022/03/04 08:10:34;;;;;;;17.27;7.72;;;0.90;99.90;;;;;;4913006;29;20227;-68
2022/03/04 08:13:01;;;;;;;11.40;7.75;;;0.90;99.90;;;;;;4914459;29;20257;-68
2022/03/04 08:15:28;;;;;;;6.75;4.93;;;1.00;99.90;;;;;;4926194;29;20233;-68
2022/03/04 08:17:54;;;;;;;15.95;8.35;;;1.10;99.90;;;;;;4913663;29;20214;-68
2022/03/04 08:20:22;;;;;;;9.30;4.47;;;1.10;99.90;;;;;;4945779;29;20201;-69
2022/03/04 08:22:48;;;;;;;9.55;5.20;;;1.20;99.90;;;;;;4947795;29;20718;-68
2022/03/04 08:25:16;;;;;;;9.25;6.40;;;1.20;99.90;;;;;;4927393;29;20236;-68
2022/03/04 08:27:43;;;;;;;9.38;6.43;;;1.20;99.90;;;;;;4929672;29;20201;-67
2022/03/04 08:30:12;;;;;;;6.25;4.85;;;1.30;99.90;;;;;;4924707;29;20633;-68
2022/03/04 08:32:39;;;;;;;9.50;5.25;;;1.30;99.90;;;;;;4916504;29;20577;-67
2022/03/04 08:35:08;;;;;;;9.82;6.13;;;1.40;99.90;;;;;;4919505;29;20705;-67
2022/03/04 08:37:35;;;;;;;9.73;6.35;;;1.40;99.90;;;;;;4915907;29;20627;-68
2022/03/04 08:40:03;;;;;;;11.57;6.25;;;1.50;99.90;;;;;;4929622;29;20209;-70
2022/03/04 08:42:31;;;;;;;9.77;7.13;;;1.50;99.90;;;;;;4930303;29;20221;-68
2022/03/04 08:44:58;;;;;;;10.57;6.65;;;1.50;99.90;;;;;;4913407;29;20211;-70
2022/03/04 08:47:24;;;;;;;11.05;6.93;;;1.60;99.90;;;;;;4913443;29;20211;-69
2022/03/04 08:49:51;;;;;;;7.22;6.43;;;1.50;99.90;;;;;;4931970;29;20666;-68
2022/03/04 08:52:18;;;;;;;12.73;7.20;;;1.60;99.90;;;;;;4931999;29;20230;-68
2022/03/04 08:54:44;;;;;;;11.13;6.07;;;1.70;99.90;;;;;;4925622;29;20850;-68
2022/03/04 08:57:12;;;;;;;17.85;11.75;;;1.70;99.90;;;;;;4918981;29;20198;-69
2022/03/04 08:59:40;;;;;;;16.58;8.85;;;1.70;99.90;;;;;;4924405;29;20647;-68
2022/03/04 09:02:07;;;;;;;13.43;8.75;;;1.80;99.90;;;;;;4933250;29;20284;-68
2022/03/04 09:04:34;;;;;;;12.88;7.82;;;1.80;99.90;;;;;;4915808;29;20319;-67
2022/03/04 09:07:02;;;;;;;18.55;8.75;;;1.80;99.90;;;;;;4925600;29;20216;-70
2022/03/04 09:09:29;;;;;;;15.95;8.07;;;1.90;99.90;;;;;;4932564;28;20273;-68
2022/03/04 09:11:56;;;;;;;14.88;8.55;;;1.90;99.90;;;;;;4931874;29;20222;-70
2022/03/04 09:14:23;;;;;;;16.27;7.85;;;1.90;99.90;;;;;;4915388;29;20215;-68
2022/03/04 09:16:52;;;;;;;20.40;9.50;;;2.00;99.90;;;;;;4942115;29;20212;-68
2022/03/04 09:19:19;;;;;;;14.35;7.50;;;2.00;99.90;;;;;;4931146;28;20210;-69
2022/03/04 09:21:47;;;;;;;13.68;8.65;;;2.10;99.90;;;;;;4931361;29;20222;-71
2022/03/04 09:24:14;;;;;;;11.70;7.30;;;2.10;99.90;;;;;;4935149;29;20206;-68
2022/03/04 09:26:41;;;;;;;13.68;8.52;;;2.10;99.90;;;;;;4942394;29;20201;-67
2022/03/04 09:29:08;;;;;;;15.32;8.02;;;2.20;99.90;;;;;;4939304;28;20670;-70
2022/03/04 09:31:35;;;;;;;11.23;6.97;;;2.30;99.90;;;;;;4934087;29;20694;-67
2022/03/04 09:34:03;;;;;;;16.48;8.18;;;2.20;99.90;;;;;;4938047;29;20252;-67
2022/03/04 09:36:31;;;;;;;26.75;14.15;;;2.30;99.90;;;;;;4949460;28;20234;-68
2022/03/04 09:38:58;;;;;;;19.65;12.40;;;2.40;99.90;;;;;;4933224;29;20206;-67
2022/03/04 09:41:26;;;;;;;11.07;8.68;;;2.50;99.90;;;;;;4931792;29;20226;-68
2022/03/04 09:43:54;;;;;;;29.05;17.98;;;2.60;99.90;;;;;;4931216;29;20293;-68
2022/03/04 09:46:21;;;;;;;15.02;7.88;;;2.80;99.90;;;;;;4933903;29;20198;-67
2022/03/04 09:48:49;;;;;;;12.27;7.57;;;2.80;99.90;;;;;;4934028;29;20206;-68
2022/03/04 09:51:18;;;;;;;14.80;8.77;;;2.90;99.90;;;;;;4926996;29;20263;-68
2022/03/04 09:53:45;;;;;;;8.70;6.60;;;3.00;99.90;;;;;;4933979;29;20224;-67
2022/03/04 09:56:13;;;;;;;10.13;7.35;;;3.10;99.90;;;;;;4934187;29;20229;-68
2022/03/04 09:58:40;;;;;;;10.68;6.50;;;3.10;99.90;;;;;;4934145;29;20217;-68
2022/03/04 10:01:10;;;;;;;7.85;7.05;;;3.20;99.90;;;;;;4933218;29;20329;-68
2022/03/04 10:03:45;;;;;;;16.70;13.70;;;3.30;99.90;;;;;;4932884;29;20317;-68
2022/03/04 10:06:11;;;;;;;7.50;6.00;;;3.40;99.90;;;;;;4926826;29;20406;-68
2022/03/04 10:08:41;;;;;;;8.52;6.13;;;3.40;99.90;;;;;;4949930;29;20264;-68
2022/03/04 10:11:08;;;;;;;6.47;5.63;;;3.50;99.90;;;;;;4951481;28;20233;-67
2022/03/04 10:13:44;;;;;;;29.80;17.50;;;3.60;99.90;;;;;;4949085;29;20209;-67
2022/03/04 10:16:12;;;;;;;6.32;5.45;;;3.60;99.90;;;;;;4937838;29;20328;-68
2022/03/04 10:18:39;;;;;;;8.52;5.95;;;3.60;99.90;;;;;;4915817;29;20214;-67
2022/03/04 10:21:05;;;;;;;4.78;4.32;;;3.70;99.90;;;;;;4932700;29;20559;-67
2022/03/04 10:23:32;;;;;;;6.57;5.03;;;3.60;99.90;;;;;;4942562;29;20213;-67
2022/03/04 10:26:02;;;;;;;8.57;5.05;;;3.70;99.90;;;;;;4934653;28;20205;-67
2022/03/04 10:28:30;;;;;;;5.70;4.75;;;3.80;99.90;;;;;;4932967;29;20239;-67
2022/03/04 10:30:58;;;;;;;8.50;5.47;;;3.90;99.90;;;;;;4930025;29;20226;-68
2022/03/04 10:33:26;;;;;;;7.25;5.20;;;4.00;99.90;;;;;;4937224;29;20210;-68
2022/03/04 10:36:18;;;;;;;7.03;4.45;;;3.90;99.90;;;;;;4932475;29;20226;-67
2022/03/04 10:38:44;;;;;;;10.88;6.30;;;4.00;99.90;;;;;;4928102;28;20270;-68
2022/03/04 10:41:23;;;;;;;7.90;5.60;;;4.10;99.90;;;;;;4927487;29;20230;-68
2022/03/04 10:43:51;;;;;;;9.93;5.75;;;4.30;99.90;;;;;;4930412;29;20209;-68
2022/03/04 10:46:18;;;;;;;5.78;5.18;;;4.40;99.90;;;;;;4937030;28;20248;-68
2022/03/04 10:48:52;;;;;;;6.50;5.85;;;4.50;99.90;;;;;;4935341;28;20218;-68
2022/03/04 10:51:34;;;;;;;6.22;4.95;;;4.50;99.90;;;;;;4924824;29;20308;-68
2022/03/04 10:54:11;;;;;;;6.05;5.20;;;4.60;99.90;;;;;;4932668;29;20296;-69
2022/03/04 10:56:54;;;;;;;5.28;4.45;;;4.80;99.90;;;;;;4922811;29;20230;-68
2022/03/04 10:59:21;;;;;;;7.55;4.90;;;4.80;99.90;;;;;;4921318;29;20201;-67
2022/03/04 11:01:49;;;;;;;8.05;4.40;;;4.80;99.90;;;;;;4938650;28;20237;-67
2022/03/04 11:04:18;;;;;;;6.38;5.00;;;4.80;99.90;;;;;;4935711;29;20205;-68
2022/03/04 11:06:46;;;;;;;4.70;4.40;;;4.70;99.90;;;;;;4941147;28;20293;-67
2022/03/04 11:09:13;;;;;;;4.65;4.20;;;4.70;99.90;;;;;;4943941;29;20209;-68
2022/03/04 11:11:43;;;;;;;5.78;4.63;;;4.80;99.90;;;;;;4928852;29;20833;-67
2022/03/04 11:14:12;;;;;;;5.65;4.72;;;4.80;99.90;;;;;;4932410;29;20293;-68
2022/03/04 11:16:40;;;;;;;7.07;5.95;;;4.70;99.90;;;;;;4933076;29;20257;-67
2022/03/04 11:19:07;;;;;;;10.30;6.35;;;4.70;99.90;;;;;;4927121;29;20217;-68
2022/03/04 11:21:34;;;;;;;8.07;5.90;;;4.80;99.90;;;;;;4928871;28;20575;-68
2022/03/04 11:24:01;;;;;;;6.13;5.63;;;5.00;99.90;;;;;;4937548;29;20204;-68
2022/03/04 11:26:30;;;;;;;5.95;5.45;;;5.10;99.90;;;;;;4941730;28;20277;-67
2022/03/04 11:28:59;;;;;;;7.65;4.40;;;5.30;99.90;;;;;;4932765;29;20217;-67
2022/03/04 11:31:29;;;;;;;7.63;4.35;;;5.30;99.90;;;;;;4936261;29;20227;-68
2022/03/04 11:33:58;;;;;;;5.68;3.95;;;5.20;99.90;;;;;;4936916;28;20214;-69
2022/03/04 11:36:27;;;;;;;4.25;3.95;;;5.00;99.90;;;;;;4926121;29;20637;-68
2022/03/04 11:38:58;;;;;;;5.60;5.20;;;4.90;99.90;;;;;;4913434;29;20462;-69
2022/03/04 11:41:31;;;;;;;5.30;4.40;;;4.90;99.90;;;;;;4923044;29;20485;-69
2022/03/04 11:43:59;;;;;;;4.43;4.05;;;4.80;99.90;;;;;;4932217;29;20241;-68
2022/03/04 11:46:30;;;;;;;5.65;4.47;;;4.90;99.90;;;;;;4930038;29;20232;-68
2022/03/04 11:49:34;;;;;;;6.40;4.80;;;5.00;99.90;;;;;;4932360;29;20299;-69
2022/03/04 11:52:21;;;;;;;5.63;4.13;;;5.00;99.90;;;;;;4894900;29;20234;-68
2022/03/04 11:55:27;;;;;;;4.55;4.20;;;4.90;99.90;;;;;;4932364;29;20237;-68
2022/03/04 11:58:02;;;;;;;4.45;4.05;;;4.80;99.90;;;;;;4930708;29;20556;-68
2022/03/04 12:00:36;;;;;;;3.75;3.15;;;4.70;99.90;;;;;;4931548;29;20816;-68
2022/03/04 12:03:18;;;;;;;4.43;4.22;;;4.70;99.90;;;;;;4932527;29;20209;-68
2022/03/04 12:05:47;;;;;;;5.65;4.72;;;4.70;99.90;;;;;;4932544;29;20245;-68
2022/03/04 12:08:14;;;;;;;7.35;4.53;;;4.80;99.90;;;;;;4931596;29;20217;-68
2022/03/04 12:11:00;;;;;;;18.55;9.20;;;4.90;99.90;;;;;;4931489;29;20234;-68
2022/03/04 12:13:27;;;;;;;6.50;4.22;;;5.00;99.90;;;;;;4931879;29;20300;-68
2022/03/04 12:16:00;;;;;;;5.57;3.25;;;5.20;99.90;;;;;;4931845;29;20281;-68
2022/03/04 12:18:31;;;;;;;5.50;3.67;;;5.20;99.90;;;;;;4931880;29;20213;-69
2022/03/04 12:21:13;;;;;;;4.43;4.03;;;5.20;99.90;;;;;;4931530;29;20675;-69
2022/03/04 12:23:50;;;;;;;4.10;3.80;;;5.30;99.90;;;;;;4931743;29;20798;-67
2022/03/04 12:26:23;;;;;;;5.75;4.47;;;5.40;99.90;;;;;;4932382;29;20260;-67
2022/03/04 12:28:52;;;;;;;4.38;3.97;;;5.40;99.90;;;;;;4928147;29;20210;-68
2022/03/04 12:31:30;;;;;;;5.60;4.85;;;5.40;99.90;;;;;;4930808;29;20741;-68
2022/03/04 12:33:59;;;;;;;3.22;3.03;;;5.40;99.90;;;;;;4931997;29;20213;-68
2022/03/04 12:36:28;;;;;;;2.20;2.10;;;5.40;99.90;;;;;;4932030;29;20619;-69
2022/03/04 12:38:57;;;;;;;3.55;2.45;;;5.50;99.90;;;;;;4932133;29;20214;-68
2022/03/04 12:41:26;;;;;;;2.47;2.38;;;5.60;99.90;;;;;;4931160;29;20328;-68
2022/03/04 12:43:54;;;;;;;2.97;2.40;;;5.80;99.90;;;;;;4931579;29;20686;-68
2022/03/04 12:46:23;;;;;;;4.00;2.35;;;5.80;99.90;;;;;;4931692;29;20210;-68
2022/03/04 12:48:51;;;;;;;4.85;3.20;;;5.90;99.90;;;;;;4930361;29;20209;-67
2022/03/04 12:51:29;;;;;;;5.60;3.35;;;5.90;99.90;;;;;;4931076;29;20582;-68
2022/03/04 12:53:58;;;;;;;3.17;2.97;;;5.90;99.90;;;;;;4932056;29;20304;-69
2022/03/04 12:56:25;;;;;;;5.18;4.45;;;6.00;99.90;;;;;;4931852;29;20714;-69
2022/03/04 12:58:53;;;;;;;2.65;2.42;;;6.00;99.90;;;;;;4931449;29;20297;-69
2022/03/04 13:01:22;;;;;;;5.15;2.92;;;6.10;99.90;;;;;;4931060;29;20240;-69
2022/03/04 13:03:50;;;;;;;3.83;3.40;;;6.30;99.90;;;;;;4932820;29;20245;-68
2022/03/04 13:06:18;;;;;;;2.83;2.65;;;6.40;99.90;;;;;;4936019;29;20667;-68
2022/03/04 13:08:48;;;;;;;2.90;2.72;;;6.40;99.90;;;;;;4936090;29;20210;-68
2022/03/04 13:11:17;;;;;;;3.13;2.88;;;6.40;99.90;;;;;;4935593;29;20229;-68
2022/03/04 13:13:45;;;;;;;1.50;1.50;;;6.40;99.90;;;;;;4935155;29;20213;-68
2022/03/04 13:16:12;;;;;;;2.40;1.90;;;6.30;99.90;;;;;;4934705;29;20276;-68
2022/03/04 13:18:38;;;;;;;2.53;2.00;;;6.30;99.90;;;;;;4934325;29;20236;-68
2022/03/04 13:21:07;;;;;;;2.15;2.15;;;6.20;99.90;;;;;;4934545;29;20233;-68
2022/03/04 13:23:34;;;;;;;2.38;2.25;;;6.20;99.90;;;;;;4935179;29;20671;-69
2022/03/04 13:26:07;;;;;;;2.30;2.17;;;6.20;99.90;;;;;;4935406;29;20278;-68
2022/03/04 13:28:55;;;;;;;1.50;1.40;;;6.30;99.90;;;;;;4935127;29;20256;-69
2022/03/04 13:31:24;;;;;;;7.53;2.67;;;6.30;99.90;;;;;;4934513;29;20234;-69
2022/03/04 13:33:57;;;;;;;2.40;2.30;;;6.30;99.90;;;;;;4935155;29;20408;-69
2022/03/04 13:36:47;;;;;;;1.55;1.55;;;6.30;99.90;;;;;;4935005;29;20324;-69
2022/03/04 13:39:19;;;;;;;2.13;2.00;;;6.30;99.90;;;;;;4935149;29;20683;-69
2022/03/04 13:41:48;;;;;;;2.17;1.60;;;6.40;99.90;;;;;;4934319;29;20241;-69
2022/03/04 13:44:17;;;;;;;4.18;2.38;;;6.40;99.90;;;;;;4934788;29;20210;-69
2022/03/04 13:47:00;;;;;;;2.13;1.85;;;6.40;99.90;;;;;;4936400;29;20219;-68
2022/03/04 13:49:42;;;;;;;2.95;2.10;;;6.40;99.90;;;;;;4915927;29;20549;-69
2022/03/04 13:52:08;;;;;;;2.22;2.03;;;6.40;99.90;;;;;;4926736;29;20264;-69
2022/03/04 13:54:56;;;;;;;1.70;1.70;;;6.50;99.90;;;;;;4936281;28;20579;-68
2022/03/04 13:57:33;;;;;;;1.83;1.73;;;6.50;99.90;;;;;;4928231;29;20230;-68
2022/03/04 14:00:02;;;;;;;2.50;2.28;;;6.50;99.90;;;;;;4934743;29;20225;-68
2022/03/04 14:02:37;;;;;;;1.90;1.80;;;6.60;99.90;;;;;;4934962;29;20305;-68
2022/03/04 14:05:04;;;;;;;2.10;2.00;;;6.60;99.90;;;;;;4935454;29;20666;-68
2022/03/04 14:07:40;;;;;;;3.40;2.22;;;6.60;99.90;;;;;;4935631;29;20249;-68
2022/03/04 14:10:11;;;;;;;2.53;2.25;;;6.60;99.90;;;;;;4933989;29;20217;-68
2022/03/04 14:12:39;;;;;;;2.38;2.10;;;6.60;99.90;;;;;;4934382;29;20261;-68
2022/03/04 14:15:07;;;;;;;1.52;1.42;;;6.70;99.90;;;;;;4933855;29;20210;-67
2022/03/04 14:17:44;;;;;;;2.30;1.77;;;6.70;99.90;;;;;;4937524;29;20221;-67
2022/03/04 14:20:11;;;;;;;2.80;2.42;;;6.70;99.90;;;;;;4952929;28;20212;-67
2022/03/04 14:22:38;;;;;;;2.08;1.65;;;6.70;99.90;;;;;;4935976;28;20226;-68
2022/03/04 14:25:06;;;;;;;1.52;1.42;;;6.70;99.90;;;;;;4918951;29;20218;-67
2022/03/04 14:27:32;;;;;;;1.73;1.70;;;6.70;99.90;;;;;;4947964;28;20635;-67
2022/03/04 14:30:00;;;;;;;1.83;1.73;;;6.70;99.90;;;;;;4948106;29;20261;-67
2022/03/04 14:32:27;;;;;;;1.50;1.50;;;6.70;99.90;;;;;;4932273;28;20234;-67
2022/03/04 14:34:54;;;;;;;1.85;1.85;;;6.70;99.90;;;;;;4941931;29;20737;-67
2022/03/04 14:37:20;;;;;;;2.00;1.90;;;6.70;99.90;;;;;;4950332;28;20296;-67
2022/03/04 14:39:47;;;;;;;1.80;1.70;;;6.70;99.90;;;;;;4932114;29;20280;-67
2022/03/04 14:42:14;;;;;;;2.10;2.00;;;6.70;99.90;;;;;;4929491;29;20276;-67
2022/03/04 14:44:40;;;;;;;1.80;1.70;;;6.60;99.90;;;;;;4943744;29;20205;-67
2022/03/04 14:47:09;;;;;;;2.00;1.90;;;6.60;99.90;;;;;;4943428;28;20870;-67
2022/03/04 14:49:36;;;;;;;3.67;1.85;;;6.50;99.90;;;;;;4930970;29;20250;-67
2022/03/04 14:52:05;;;;;;;1.80;1.80;;;6.40;99.90;;;;;;4933993;29;20230;-68
2022/03/04 14:54:32;;;;;;;2.20;1.65;;;6.40;99.90;;;;;;4934407;28;20210;-67
2022/03/04 14:56:59;;;;;;;1.73;1.73;;;6.40;99.90;;;;;;4949517;29;20224;-68
2022/03/04 14:59:27;;;;;;;2.03;1.92;;;6.30;99.90;;;;;;4932511;29;20205;-67
2022/03/04 15:01:53;;;;;;;3.15;1.90;;;6.20;99.90;;;;;;4942143;28;20234;-69
2022/03/04 15:04:21;;;;;;;3.75;2.40;;;6.20;99.90;;;;;;4945465;29;20205;-68
2022/03/04 15:06:49;;;;;;;2.75;2.30;;;6.10;99.90;;;;;;4929863;29;20202;-68
2022/03/04 15:09:15;;;;;;;2.33;2.28;;;6.10;99.90;;;;;;4915585;29;20672;-67
2022/03/04 15:11:42;;;;;;;2.15;2.05;;;6.10;99.90;;;;;;4937669;29;20248;-67
2022/03/04 15:14:09;;;;;;;2.05;1.98;;;6.00;99.90;;;;;;4950024;28;20669;-67
2022/03/04 15:16:36;;;;;;;2.50;2.40;;;6.00;99.90;;;;;;4929615;29;20229;-67
2022/03/04 15:19:03;;;;;;;2.30;2.15;;;6.00;99.90;;;;;;4945661;28;20297;-67
2022/03/04 15:21:31;;;;;;;2.35;2.22;;;6.00;99.90;;;;;;4924229;28;20233;-67
2022/03/04 15:23:58;;;;;;;2.38;2.28;;;6.10;99.90;;;;;;4924885;29;20234;-68
2022/03/04 15:26:25;;;;;;;1.98;1.70;;;6.10;99.90;;;;;;4933875;28;22218;-67
2022/03/04 15:28:52;;;;;;;2.28;2.17;;;6.10;99.90;;;;;;4927615;29;20712;-68
2022/03/04 15:31:19;;;;;;;2.75;2.53;;;6.20;99.90;;;;;;4929380;29;20222;-67
2022/03/04 15:33:45;;;;;;;2.65;2.55;;;6.20;99.90;;;;;;4935961;29;20213;-68
2022/03/04 15:36:12;;;;;;;2.03;1.92;;;6.30;99.90;;;;;;4941537;28;20582;-69
2022/03/04 15:38:40;;;;;;;2.00;1.90;;;6.30;99.90;;;;;;4930234;29;20210;-68
2022/03/04 15:41:07;;;;;;;2.30;2.20;;;6.20;99.90;;;;;;4930486;29;20222;-68
2022/03/04 15:43:33;;;;;;;2.13;2.03;;;6.30;99.90;;;;;;4930554;29;20209;-67
2022/03/04 15:46:00;;;;;;;2.25;2.25;;;6.30;99.90;;;;;;4932190;29;20356;-67
2022/03/04 15:48:27;;;;;;;3.15;2.53;;;6.30;99.90;;;;;;4930768;29;20567;-68
2022/03/04 15:50:54;;;;;;;2.63;2.40;;;6.30;99.90;;;;;;4925518;28;20241;-67
2022/03/04 15:53:20;;;;;;;2.53;2.33;;;6.20;99.90;;;;;;4937115;29;20667;-68
2022/03/04 15:55:48;;;;;;;6.85;2.45;;;6.20;99.90;;;;;;4926353;29;20217;-67
2022/03/04 15:58:15;;;;;;;2.83;2.40;;;6.20;99.90;;;;;;4931488;29;20226;-68
2022/03/04 16:00:42;;;;;;;4.35;2.20;;;6.20;99.90;;;;;;4930320;29;20245;-68
2022/03/04 16:03:08;;;;;;;2.22;2.13;;;6.20;99.90;;;;;;4922266;29;20240;-69
2022/03/04 16:05:35;;;;;;;1.63;1.63;;;6.10;99.90;;;;;;4930017;29;20210;-67
2022/03/04 16:08:02;;;;;;;1.65;1.55;;;6.00;99.90;;;;;;4921295;29;20221;-69
2022/03/04 16:10:30;;;;;;;1.58;1.50;;;6.00;99.90;;;;;;4930438;28;20288;-68
2022/03/04 16:12:58;;;;;;;1.10;1.10;;;5.90;99.90;;;;;;4944132;28;20636;-67
2022/03/04 16:15:25;;;;;;;1.42;1.33;;;5.80;99.90;;;;;;4929091;29;20246;-68
2022/03/04 16:17:51;;;;;;;1.33;1.33;;;5.80;99.90;;;;;;4925791;29;20222;-69
2022/03/04 16:20:18;;;;;;;1.40;1.08;;;5.70;99.90;;;;;;4930532;29;20224;-67
2022/03/04 16:22:45;;;;;;;0.90;0.90;;;5.60;99.90;;;;;;4932203;29;20664;-68
2022/03/04 16:25:11;;;;;;;2.38;1.45;;;5.60;99.90;;;;;;4932096;29;20202;-68
2022/03/04 16:27:38;;;;;;;1.10;1.10;;;5.50;99.90;;;;;;4934307;29;20221;-68
2022/03/04 16:30:07;;;;;;;1.98;1.50;;;5.40;99.90;;;;;;4936799;29;20197;-69
2022/03/04 16:32:34;;;;;;;1.55;1.55;;;5.40;99.90;;;;;;4934298;29;20743;-69
2022/03/04 16:35:01;;;;;;;1.27;1.27;;;5.30;99.90;;;;;;4932528;29;20210;-71
2022/03/04 16:37:28;;;;;;;2.38;1.50;;;5.30;99.90;;;;;;4933069;29;20272;-68
2022/03/04 16:39:55;;;;;;;1.60;1.60;;;5.20;99.90;;;;;;4934684;29;20222;-69
2022/03/04 16:42:22;;;;;;;2.80;1.33;;;5.10;99.90;;;;;;4935682;29;20255;-69
2022/03/04 16:44:48;;;;;;;2.60;2.05;;;5.10;99.90;;;;;;4935669;29;20213;-69
2022/03/04 16:47:17;;;;;;;2.17;1.52;;;5.10;99.90;;;;;;4933102;29;20577;-69
2022/03/04 16:49:44;;;;;;;2.28;2.05;;;5.10;99.90;;;;;;4928056;29;20198;-69
2022/03/04 16:52:15;;;;;;;1.88;1.85;;;5.00;99.90;;;;;;4928839;29;20244;-68
2022/03/04 16:54:41;;;;;;;2.78;2.58;;;5.00;99.90;;;;;;4935338;29;20680;-68
2022/03/04 16:57:08;;;;;;;2.45;2.25;;;4.90;99.90;;;;;;4934980;29;20229;-69
2022/03/04 16:59:35;;;;;;;1.90;1.90;;;4.80;99.90;;;;;;4934355;29;20205;-67
2022/03/04 17:02:01;;;;;;;5.50;3.45;;;4.80;99.90;;;;;;4934594;29;20289;-68
2022/03/04 17:04:29;;;;;;;2.35;2.25;;;4.70;99.90;;;;;;4933377;29;20214;-68
2022/03/04 17:06:56;;;;;;;2.90;2.50;;;4.70;99.90;;;;;;4931571;29;20313;-68
2022/03/04 17:09:23;;;;;;;7.70;5.95;;;4.70;99.90;;;;;;4933239;29;20640;-68
2022/03/04 17:11:50;;;;;;;7.97;5.30;;;4.60;99.90;;;;;;4935580;29;20225;-68
2022/03/04 17:14:16;;;;;;;8.25;3.95;;;4.60;99.90;;;;;;4930215;29;20280;-68
2022/03/04 17:16:45;;;;;;;4.18;3.70;;;4.50;99.90;;;;;;4935656;29;20214;-69
2022/03/04 17:19:12;;;;;;;7.93;4.68;;;4.40;99.90;;;;;;4934908;29;20269;-68
2022/03/04 17:21:40;;;;;;;6.35;5.03;;;4.40;99.90;;;;;;4933493;29;20265;-68
2022/03/04 17:24:09;;;;;;;5.22;4.72;;;4.30;99.90;;;;;;4932642;29;20229;-69
2022/03/04 17:26:36;;;;;;;5.05;4.55;;;4.30;99.90;;;;;;4945616;29;20249;-68
2022/03/04 17:29:03;;;;;;;4.75;3.40;;;4.30;99.90;;;;;;4928214;29;20203;-68
2022/03/04 17:31:30;;;;;;;3.97;3.67;;;4.20;99.90;;;;;;4923910;29;20699;-68
2022/03/04 17:33:56;;;;;;;4.10;3.75;;;4.20;99.90;;;;;;4936238;29;20218;-69
2022/03/04 17:36:23;;;;;;;3.60;3.40;;;4.20;99.90;;;;;;4937811;29;20210;-68
2022/03/04 17:38:51;;;;;;;3.10;2.92;;;4.20;99.90;;;;;;4934389;29;20226;-68
2022/03/04 17:41:19;;;;;;;6.10;4.30;;;4.20;99.90;;;;;;4935044;29;20230;-69
2022/03/04 17:43:45;;;;;;;5.97;4.40;;;4.20;99.90;;;;;;4933422;29;20682;-68
2022/03/04 17:46:13;;;;;;;5.65;4.40;;;4.20;99.90;;;;;;4954633;28;20309;-68
2022/03/04 17:48:39;;;;;;;3.80;3.50;;;4.20;99.90;;;;;;4950262;28;20628;-68
2022/03/04 17:51:06;;;;;;;5.07;3.80;;;4.20;99.90;;;;;;4931185;29;20236;-69
2022/03/04 17:53:33;;;;;;;4.15;3.72;;;4.20;99.90;;;;;;4934360;29;20209;-69
2022/03/04 17:56:02;;;;;;;7.95;4.07;;;4.20;99.90;;;;;;4936358;28;20210;-68
2022/03/04 17:58:28;;;;;;;4.72;4.32;;;4.20;99.90;;;;;;4933782;29;20228;-68
2022/03/04 18:00:55;;;;;;;5.30;4.32;;;4.20;99.90;;;;;;4932672;29;20243;-68
2022/03/04 18:03:22;;;;;;;5.25;4.85;;;4.20;99.90;;;;;;4934788;29;20269;-67